sensor_id;sensor_type;location;lat;lon;timestamp;P1;durP1;ratioP1;P2;durP2;ratioP2
10343;SDS011;5217;43.960;10.954;2023-07-29T00:00:14;2.90;;;2.42;;
10343;SDS011;5217;43.960;10.954;2023-07-29T00:02:43;2.83;;;2.50;;
10343;SDS011;5217;43.960;10.954;2023-07-29T00:05:12;3.33;;;2.45;;
10343;SDS011;5217;43.960;10.954;2023-07-29T00:07:40;3.10;;;2.40;;
10343;SDS011;5217;43.960;10.954;2023-07-29T00:10:09;2.60;;;2.40;;
10343;SDS011;5217;43.960;10.954;2023-07-29T00:12:37;2.88;;;2.30;;
10343;SDS011;5217;43.960;10.954;2023-07-29T00:15:07;5.45;;;2.85;;
10343;SDS011;5217;43.960;10.954;2023-07-29T00:17:36;4.45;;;2.70;;
10343;SDS011;5217;43.960;10.954;2023-07-29T00:20:05;2.97;;;2.35;;
10343;SDS011;5217;43.960;10.954;2023-07-29T00:22:35;2.95;;;2.50;;
10343;SDS011;5217;43.960;10.954;2023-07-29T00:25:04;3.42;;;2.65;;
10343;SDS011;5217;43.960;10.954;2023-07-29T00:27:33;3.35;;;2.40;;
10343;SDS011;5217;43.960;10.954;2023-07-29T00:30:01;3.03;;;2.67;;
10343;SDS011;5217;43.960;10.954;2023-07-29T00:32:32;2.88;;;2.40;;
10343;SDS011;5217;43.960;10.954;2023-07-29T00:35:00;3.38;;;2.40;;
10343;SDS011;5217;43.960;10.954;2023-07-29T00:37:29;2.72;;;2.50;;
10343;SDS011;5217;43.960;10.954;2023-07-29T00:39:58;3.90;;;2.50;;
10343;SDS011;5217;43.960;10.954;2023-07-29T00:42:26;3.20;;;2.70;;
10343;SDS011;5217;43.960;10.954;2023-07-29T00:44:54;2.67;;;2.47;;
10343;SDS011;5217;43.960;10.954;2023-07-29T00:47:23;3.50;;;2.45;;
10343;SDS011;5217;43.960;10.954;2023-07-29T00:49:54;3.08;;;2.38;;
10343;SDS011;5217;43.960;10.954;2023-07-29T00:52:22;3.08;;;2.55;;
10343;SDS011;5217;43.960;10.954;2023-07-29T00:54:51;2.78;;;2.45;;
10343;SDS011;5217;43.960;10.954;2023-07-29T00:57:19;2.60;;;2.30;;
10343;SDS011;5217;43.960;10.954;2023-07-29T00:59:49;2.78;;;2.50;;
10343;SDS011;5217;43.960;10.954;2023-07-29T01:02:17;3.08;;;2.28;;
10343;SDS011;5217;43.960;10.954;2023-07-29T01:04:51;3.00;;;2.55;;
10343;SDS011;5217;43.960;10.954;2023-07-29T01:07:23;2.92;;;2.60;;
10343;SDS011;5217;43.960;10.954;2023-07-29T01:09:59;3.75;;;2.67;;
10343;SDS011;5217;43.960;10.954;2023-07-29T01:12:33;3.60;;;2.70;;
10343;SDS011;5217;43.960;10.954;2023-07-29T01:15:11;3.25;;;2.58;;
10343;SDS011;5217;43.960;10.954;2023-07-29T01:17:46;3.58;;;2.45;;
10343;SDS011;5217;43.960;10.954;2023-07-29T01:20:19;3.00;;;2.40;;
10343;SDS011;5217;43.960;10.954;2023-07-29T01:22:47;3.90;;;2.55;;
10343;SDS011;5217;43.960;10.954;2023-07-29T01:25:17;2.53;;;2.25;;
10343;SDS011;5217;43.960;10.954;2023-07-29T01:27:46;4.72;;;2.78;;
10343;SDS011;5217;43.960;10.954;2023-07-29T01:30:18;2.33;;;2.00;;
10343;SDS011;5217;43.960;10.954;2023-07-29T01:32:51;3.38;;;2.40;;
10343;SDS011;5217;43.960;10.954;2023-07-29T01:35:23;3.30;;;2.22;;
10343;SDS011;5217;43.960;10.954;2023-07-29T01:37:59;3.38;;;2.20;;
10343;SDS011;5217;43.960;10.954;2023-07-29T01:40:34;2.88;;;2.42;;
10343;SDS011;5217;43.960;10.954;2023-07-29T01:43:03;3.13;;;2.40;;
10343;SDS011;5217;43.960;10.954;2023-07-29T01:45:33;2.90;;;2.13;;
10343;SDS011;5217;43.960;10.954;2023-07-29T01:48:04;3.45;;;2.60;;
10343;SDS011;5217;43.960;10.954;2023-07-29T01:50:33;4.40;;;2.60;;
10343;SDS011;5217;43.960;10.954;2023-07-29T01:53:01;3.00;;;2.50;;
10343;SDS011;5217;43.960;10.954;2023-07-29T01:55:30;3.50;;;2.10;;
10343;SDS011;5217;43.960;10.954;2023-07-29T01:58:00;2.90;;;2.30;;
10343;SDS011;5217;43.960;10.954;2023-07-29T02:00:28;2.50;;;2.13;;
10343;SDS011;5217;43.960;10.954;2023-07-29T02:02:56;2.90;;;2.60;;
10343;SDS011;5217;43.960;10.954;2023-07-29T02:05:25;3.53;;;2.60;;
10343;SDS011;5217;43.960;10.954;2023-07-29T02:07:53;2.67;;;2.28;;
10343;SDS011;5217;43.960;10.954;2023-07-29T02:10:22;2.95;;;2.40;;
10343;SDS011;5217;43.960;10.954;2023-07-29T02:12:50;3.83;;;2.55;;
10343;SDS011;5217;43.960;10.954;2023-07-29T02:15:20;3.65;;;2.40;;
10343;SDS011;5217;43.960;10.954;2023-07-29T02:17:49;2.22;;;2.05;;
10343;SDS011;5217;43.960;10.954;2023-07-29T02:20:19;3.40;;;2.38;;
10343;SDS011;5217;43.960;10.954;2023-07-29T02:22:47;4.10;;;2.40;;
10343;SDS011;5217;43.960;10.954;2023-07-29T02:25:16;3.13;;;2.70;;
10343;SDS011;5217;43.960;10.954;2023-07-29T02:27:44;3.97;;;2.70;;
10343;SDS011;5217;43.960;10.954;2023-07-29T02:30:13;2.65;;;2.20;;
10343;SDS011;5217;43.960;10.954;2023-07-29T02:32:43;3.10;;;2.25;;
10343;SDS011;5217;43.960;10.954;2023-07-29T02:35:11;3.67;;;2.40;;
10343;SDS011;5217;43.960;10.954;2023-07-29T02:37:40;3.45;;;2.47;;
10343;SDS011;5217;43.960;10.954;2023-07-29T02:40:08;2.45;;;2.20;;
10343;SDS011;5217;43.960;10.954;2023-07-29T02:42:37;2.88;;;2.30;;
10343;SDS011;5217;43.960;10.954;2023-07-29T02:45:06;3.15;;;2.25;;
10343;SDS011;5217;43.960;10.954;2023-07-29T02:47:36;3.60;;;2.20;;
10343;SDS011;5217;43.960;10.954;2023-07-29T02:50:07;3.05;;;2.40;;
10343;SDS011;5217;43.960;10.954;2023-07-29T02:52:35;3.33;;;2.35;;
10343;SDS011;5217;43.960;10.954;2023-07-29T02:55:05;3.60;;;2.60;;
10343;SDS011;5217;43.960;10.954;2023-07-29T02:57:34;2.40;;;2.20;;
10343;SDS011;5217;43.960;10.954;2023-07-29T03:00:02;3.28;;;2.33;;
10343;SDS011;5217;43.960;10.954;2023-07-29T03:02:33;3.20;;;2.30;;
10343;SDS011;5217;43.960;10.954;2023-07-29T03:05:02;2.67;;;2.40;;
10343;SDS011;5217;43.960;10.954;2023-07-29T03:07:32;3.65;;;2.40;;
10343;SDS011;5217;43.960;10.954;2023-07-29T03:10:00;3.88;;;2.58;;
10343;SDS011;5217;43.960;10.954;2023-07-29T03:12:29;2.95;;;2.35;;
10343;SDS011;5217;43.960;10.954;2023-07-29T03:14:58;3.75;;;2.50;;
10343;SDS011;5217;43.960;10.954;2023-07-29T03:17:27;3.35;;;2.17;;
10343;SDS011;5217;43.960;10.954;2023-07-29T03:19:55;2.78;;;2.40;;
10343;SDS011;5217;43.960;10.954;2023-07-29T03:22:23;2.30;;;2.10;;
10343;SDS011;5217;43.960;10.954;2023-07-29T03:24:53;3.42;;;2.22;;
10343;SDS011;5217;43.960;10.954;2023-07-29T03:27:22;4.80;;;2.60;;
10343;SDS011;5217;43.960;10.954;2023-07-29T03:29:50;2.50;;;2.30;;
10343;SDS011;5217;43.960;10.954;2023-07-29T03:32:18;3.97;;;2.60;;
10343;SDS011;5217;43.960;10.954;2023-07-29T03:34:47;3.13;;;2.55;;
10343;SDS011;5217;43.960;10.954;2023-07-29T03:37:15;5.03;;;2.40;;
10343;SDS011;5217;43.960;10.954;2023-07-29T03:39:43;3.63;;;2.42;;
10343;SDS011;5217;43.960;10.954;2023-07-29T03:42:13;2.60;;;2.40;;
10343;SDS011;5217;43.960;10.954;2023-07-29T03:44:42;3.20;;;2.55;;
10343;SDS011;5217;43.960;10.954;2023-07-29T03:47:10;2.75;;;2.20;;
10343;SDS011;5217;43.960;10.954;2023-07-29T03:49:38;3.42;;;2.55;;
10343;SDS011;5217;43.960;10.954;2023-07-29T03:52:07;2.47;;;2.20;;
10343;SDS011;5217;43.960;10.954;2023-07-29T03:54:35;3.00;;;2.22;;
10343;SDS011;5217;43.960;10.954;2023-07-29T03:57:04;2.75;;;2.50;;
10343;SDS011;5217;43.960;10.954;2023-07-29T03:59:34;2.45;;;2.25;;
10343;SDS011;5217;43.960;10.954;2023-07-29T04:02:02;2.40;;;2.20;;
10343;SDS011;5217;43.960;10.954;2023-07-29T04:04:31;2.97;;;2.63;;
10343;SDS011;5217;43.960;10.954;2023-07-29T04:07:00;3.53;;;2.70;;
10343;SDS011;5217;43.960;10.954;2023-07-29T04:09:28;4.18;;;2.53;;
10343;SDS011;5217;43.960;10.954;2023-07-29T04:11:56;3.08;;;2.53;;
10343;SDS011;5217;43.960;10.954;2023-07-29T04:14:25;3.33;;;2.50;;
10343;SDS011;5217;43.960;10.954;2023-07-29T04:16:54;2.72;;;2.35;;
10343;SDS011;5217;43.960;10.954;2023-07-29T04:19:23;4.60;;;2.55;;
10343;SDS011;5217;43.960;10.954;2023-07-29T04:21:51;3.72;;;2.53;;
10343;SDS011;5217;43.960;10.954;2023-07-29T04:24:20;3.03;;;2.50;;
10343;SDS011;5217;43.960;10.954;2023-07-29T04:26:49;2.58;;;2.38;;
10343;SDS011;5217;43.960;10.954;2023-07-29T04:29:17;2.63;;;2.30;;
10343;SDS011;5217;43.960;10.954;2023-07-29T04:31:46;3.22;;;2.60;;
10343;SDS011;5217;43.960;10.954;2023-07-29T04:34:16;2.60;;;2.40;;
10343;SDS011;5217;43.960;10.954;2023-07-29T04:36:45;2.75;;;2.30;;
10343;SDS011;5217;43.960;10.954;2023-07-29T04:39:13;2.75;;;2.55;;
10343;SDS011;5217;43.960;10.954;2023-07-29T04:41:43;4.57;;;2.50;;
10343;SDS011;5217;43.960;10.954;2023-07-29T04:44:11;3.22;;;2.25;;
10343;SDS011;5217;43.960;10.954;2023-07-29T04:46:40;3.95;;;2.67;;
10343;SDS011;5217;43.960;10.954;2023-07-29T04:49:08;2.70;;;2.20;;
10343;SDS011;5217;43.960;10.954;2023-07-29T04:51:38;3.10;;;2.60;;
10343;SDS011;5217;43.960;10.954;2023-07-29T04:54:06;3.88;;;2.38;;
10343;SDS011;5217;43.960;10.954;2023-07-29T04:56:34;3.67;;;2.30;;
10343;SDS011;5217;43.960;10.954;2023-07-29T04:59:03;3.50;;;2.58;;
10343;SDS011;5217;43.960;10.954;2023-07-29T05:01:34;3.25;;;2.40;;
10343;SDS011;5217;43.960;10.954;2023-07-29T05:04:02;4.70;;;2.55;;
10343;SDS011;5217;43.960;10.954;2023-07-29T05:06:31;4.72;;;2.30;;
10343;SDS011;5217;43.960;10.954;2023-07-29T05:09:13;3.53;;;2.58;;
10343;SDS011;5217;43.960;10.954;2023-07-29T05:11:42;2.72;;;2.33;;
10343;SDS011;5217;43.960;10.954;2023-07-29T05:14:12;3.55;;;2.42;;
10343;SDS011;5217;43.960;10.954;2023-07-29T05:16:41;3.53;;;2.45;;
10343;SDS011;5217;43.960;10.954;2023-07-29T05:19:09;2.95;;;2.42;;
10343;SDS011;5217;43.960;10.954;2023-07-29T05:21:38;2.45;;;2.25;;
10343;SDS011;5217;43.960;10.954;2023-07-29T05:24:07;2.55;;;2.35;;
10343;SDS011;5217;43.960;10.954;2023-07-29T05:26:36;2.85;;;2.30;;
10343;SDS011;5217;43.960;10.954;2023-07-29T05:29:05;4.28;;;2.50;;
10343;SDS011;5217;43.960;10.954;2023-07-29T05:31:33;2.60;;;2.40;;
10343;SDS011;5217;43.960;10.954;2023-07-29T05:34:02;3.50;;;3.00;;
10343;SDS011;5217;43.960;10.954;2023-07-29T05:36:30;4.03;;;2.60;;
10343;SDS011;5217;43.960;10.954;2023-07-29T05:38:59;3.90;;;2.80;;
10343;SDS011;5217;43.960;10.954;2023-07-29T05:41:27;2.60;;;2.40;;
10343;SDS011;5217;43.960;10.954;2023-07-29T05:43:57;5.47;;;2.70;;
10343;SDS011;5217;43.960;10.954;2023-07-29T05:46:26;3.50;;;2.58;;
10343;SDS011;5217;43.960;10.954;2023-07-29T05:48:54;3.40;;;2.70;;
10343;SDS011;5217;43.960;10.954;2023-07-29T05:51:22;3.75;;;2.83;;
10343;SDS011;5217;43.960;10.954;2023-07-29T05:53:51;4.32;;;2.65;;
10343;SDS011;5217;43.960;10.954;2023-07-29T05:56:19;3.75;;;2.50;;
10343;SDS011;5217;43.960;10.954;2023-07-29T05:58:48;2.95;;;2.60;;
10343;SDS011;5217;43.960;10.954;2023-07-29T06:01:18;2.97;;;2.60;;
10343;SDS011;5217;43.960;10.954;2023-07-29T06:03:48;3.50;;;2.60;;
10343;SDS011;5217;43.960;10.954;2023-07-29T06:06:16;3.17;;;2.80;;
10343;SDS011;5217;43.960;10.954;2023-07-29T06:08:45;3.72;;;2.75;;
10343;SDS011;5217;43.960;10.954;2023-07-29T06:11:13;3.42;;;2.80;;
10343;SDS011;5217;43.960;10.954;2023-07-29T06:13:41;3.20;;;2.38;;
10343;SDS011;5217;43.960;10.954;2023-07-29T06:16:10;3.63;;;2.83;;
10343;SDS011;5217;43.960;10.954;2023-07-29T06:18:40;4.05;;;3.00;;
10343;SDS011;5217;43.960;10.954;2023-07-29T06:21:08;2.88;;;2.55;;
10343;SDS011;5217;43.960;10.954;2023-07-29T06:23:38;2.60;;;2.40;;
10343;SDS011;5217;43.960;10.954;2023-07-29T06:26:07;3.00;;;2.67;;
10343;SDS011;5217;43.960;10.954;2023-07-29T06:28:35;3.10;;;2.80;;
10343;SDS011;5217;43.960;10.954;2023-07-29T06:31:04;3.28;;;2.65;;
10343;SDS011;5217;43.960;10.954;2023-07-29T06:33:32;3.80;;;2.80;;
10343;SDS011;5217;43.960;10.954;2023-07-29T06:36:02;3.25;;;2.70;;
10343;SDS011;5217;43.960;10.954;2023-07-29T06:38:31;3.42;;;2.83;;
10343;SDS011;5217;43.960;10.954;2023-07-29T06:40:59;4.63;;;3.10;;
10343;SDS011;5217;43.960;10.954;2023-07-29T06:43:27;4.63;;;2.75;;
10343;SDS011;5217;43.960;10.954;2023-07-29T06:45:56;4.28;;;2.70;;
10343;SDS011;5217;43.960;10.954;2023-07-29T06:48:24;3.47;;;2.80;;
10343;SDS011;5217;43.960;10.954;2023-07-29T06:50:53;5.30;;;2.88;;
10343;SDS011;5217;43.960;10.954;2023-07-29T06:53:23;3.10;;;2.80;;
10343;SDS011;5217;43.960;10.954;2023-07-29T06:55:51;2.97;;;2.60;;
10343;SDS011;5217;43.960;10.954;2023-07-29T06:58:20;4.47;;;2.88;;
10343;SDS011;5217;43.960;10.954;2023-07-29T07:00:48;5.05;;;2.83;;
10343;SDS011;5217;43.960;10.954;2023-07-29T07:03:17;3.58;;;2.80;;
10343;SDS011;5217;43.960;10.954;2023-07-29T07:05:45;3.42;;;2.70;;
10343;SDS011;5217;43.960;10.954;2023-07-29T07:08:14;4.13;;;2.83;;
10343;SDS011;5217;43.960;10.954;2023-07-29T07:10:44;3.92;;;2.53;;
10343;SDS011;5217;43.960;10.954;2023-07-29T07:13:14;4.07;;;3.08;;
10343;SDS011;5217;43.960;10.954;2023-07-29T07:15:42;6.00;;;3.35;;
10343;SDS011;5217;43.960;10.954;2023-07-29T07:24:27;5.55;;;2.85;;
10343;SDS011;5217;43.960;10.954;2023-07-29T07:26:56;6.35;;;3.00;;
10343;SDS011;5217;43.960;10.954;2023-07-29T07:29:24;4.43;;;2.65;;
10343;SDS011;5217;43.960;10.954;2023-07-29T07:31:53;4.07;;;3.13;;
10343;SDS011;5217;43.960;10.954;2023-07-29T07:34:22;2.95;;;2.63;;
10343;SDS011;5217;43.960;10.954;2023-07-29T07:36:50;6.72;;;3.55;;
10343;SDS011;5217;43.960;10.954;2023-07-29T07:39:19;3.88;;;2.90;;
10343;SDS011;5217;43.960;10.954;2023-07-29T07:54:27;4.07;;;2.80;;
10343;SDS011;5217;43.960;10.954;2023-07-29T07:56:55;7.10;;;3.22;;
10343;SDS011;5217;43.960;10.954;2023-07-29T07:59:26;5.13;;;3.20;;
10343;SDS011;5217;43.960;10.954;2023-07-29T08:01:54;5.05;;;3.05;;
10343;SDS011;5217;43.960;10.954;2023-07-29T08:04:22;4.57;;;3.08;;
10343;SDS011;5217;43.960;10.954;2023-07-29T08:06:51;4.57;;;3.10;;
10343;SDS011;5217;43.960;10.954;2023-07-29T08:09:19;4.78;;;2.90;;
10343;SDS011;5217;43.960;10.954;2023-07-29T08:11:49;4.65;;;3.13;;
10343;SDS011;5217;43.960;10.954;2023-07-29T08:14:17;4.57;;;3.10;;
10343;SDS011;5217;43.960;10.954;2023-07-29T08:16:46;4.30;;;3.00;;
10343;SDS011;5217;43.960;10.954;2023-07-29T08:19:14;4.00;;;2.85;;
10343;SDS011;5217;43.960;10.954;2023-07-29T08:21:42;4.15;;;2.80;;
10343;SDS011;5217;43.960;10.954;2023-07-29T08:24:11;7.13;;;3.10;;
10343;SDS011;5217;43.960;10.954;2023-07-29T08:26:40;4.47;;;2.80;;
10343;SDS011;5217;43.960;10.954;2023-07-29T08:29:10;4.00;;;2.85;;
10343;SDS011;5217;43.960;10.954;2023-07-29T08:31:38;5.22;;;3.10;;
10343;SDS011;5217;43.960;10.954;2023-07-29T08:34:07;4.57;;;2.80;;
10343;SDS011;5217;43.960;10.954;2023-07-29T08:36:36;3.30;;;2.60;;
10343;SDS011;5217;43.960;10.954;2023-07-29T08:39:04;3.47;;;2.80;;
10343;SDS011;5217;43.960;10.954;2023-07-29T08:41:35;4.15;;;3.00;;
10343;SDS011;5217;43.960;10.954;2023-07-29T08:44:11;3.45;;;2.65;;
10343;SDS011;5217;43.960;10.954;2023-07-29T08:46:45;3.55;;;2.83;;
10343;SDS011;5217;43.960;10.954;2023-07-29T08:49:14;3.42;;;2.67;;
10343;SDS011;5217;43.960;10.954;2023-07-29T08:51:45;5.22;;;2.80;;
10343;SDS011;5217;43.960;10.954;2023-07-29T08:54:15;4.82;;;2.90;;
10343;SDS011;5217;43.960;10.954;2023-07-29T08:56:44;3.03;;;2.72;;
10343;SDS011;5217;43.960;10.954;2023-07-29T08:59:15;4.57;;;2.83;;
10343;SDS011;5217;43.960;10.954;2023-07-29T09:01:44;4.88;;;3.00;;
10343;SDS011;5217;43.960;10.954;2023-07-29T09:04:14;5.20;;;3.15;;
10343;SDS011;5217;43.960;10.954;2023-07-29T09:06:44;5.03;;;2.90;;
10343;SDS011;5217;43.960;10.954;2023-07-29T09:09:14;2.95;;;2.55;;
10343;SDS011;5217;43.960;10.954;2023-07-29T09:11:43;4.97;;;2.80;;
10343;SDS011;5217;43.960;10.954;2023-07-29T09:14:12;3.30;;;2.80;;
10343;SDS011;5217;43.960;10.954;2023-07-29T09:16:43;2.45;;;2.25;;
10343;SDS011;5217;43.960;10.954;2023-07-29T09:19:11;3.92;;;2.83;;
10343;SDS011;5217;43.960;10.954;2023-07-29T09:21:40;5.95;;;3.17;;
10343;SDS011;5217;43.960;10.954;2023-07-29T09:24:10;4.38;;;2.78;;
10343;SDS011;5217;43.960;10.954;2023-07-29T09:26:40;3.95;;;3.10;;
10343;SDS011;5217;43.960;10.954;2023-07-29T09:29:20;4.57;;;3.03;;
10343;SDS011;5217;43.960;10.954;2023-07-29T09:31:50;3.58;;;3.08;;
10343;SDS011;5217;43.960;10.954;2023-07-29T09:34:19;4.78;;;3.20;;
10343;SDS011;5217;43.960;10.954;2023-07-29T09:36:50;4.30;;;3.15;;
10343;SDS011;5217;43.960;10.954;2023-07-29T09:39:19;3.55;;;2.60;;
10343;SDS011;5217;43.960;10.954;2023-07-29T09:41:51;4.22;;;2.90;;
10343;SDS011;5217;43.960;10.954;2023-07-29T09:44:21;4.68;;;3.10;;
10343;SDS011;5217;43.960;10.954;2023-07-29T09:46:50;4.32;;;2.60;;
10343;SDS011;5217;43.960;10.954;2023-07-29T09:49:18;4.13;;;2.70;;
10343;SDS011;5217;43.960;10.954;2023-07-29T09:51:47;5.55;;;3.30;;
10343;SDS011;5217;43.960;10.954;2023-07-29T09:54:15;3.58;;;2.70;;
10343;SDS011;5217;43.960;10.954;2023-07-29T09:56:45;3.10;;;2.63;;
10343;SDS011;5217;43.960;10.954;2023-07-29T09:59:15;3.20;;;2.58;;
10343;SDS011;5217;43.960;10.954;2023-07-29T10:01:48;3.92;;;2.33;;
10343;SDS011;5217;43.960;10.954;2023-07-29T10:04:16;3.47;;;2.38;;
10343;SDS011;5217;43.960;10.954;2023-07-29T10:06:45;6.07;;;2.63;;
10343;SDS011;5217;43.960;10.954;2023-07-29T10:09:16;4.32;;;2.50;;
10343;SDS011;5217;43.960;10.954;2023-07-29T10:11:46;3.92;;;2.30;;
10343;SDS011;5217;43.960;10.954;2023-07-29T10:14:17;3.63;;;2.25;;
10343;SDS011;5217;43.960;10.954;2023-07-29T10:16:48;3.30;;;2.67;;
10343;SDS011;5217;43.960;10.954;2023-07-29T10:19:17;3.30;;;2.50;;
10343;SDS011;5217;43.960;10.954;2023-07-29T10:21:46;4.35;;;2.40;;
10343;SDS011;5217;43.960;10.954;2023-07-29T10:24:18;3.03;;;2.30;;
10343;SDS011;5217;43.960;10.954;2023-07-29T10:26:56;2.80;;;2.20;;
10343;SDS011;5217;43.960;10.954;2023-07-29T10:29:28;3.65;;;2.35;;
10343;SDS011;5217;43.960;10.954;2023-07-29T10:32:02;4.35;;;2.47;;
10343;SDS011;5217;43.960;10.954;2023-07-29T10:34:32;2.63;;;2.13;;
10343;SDS011;5217;43.960;10.954;2023-07-29T10:37:02;3.55;;;2.45;;
10343;SDS011;5217;43.960;10.954;2023-07-29T10:39:37;3.95;;;2.50;;
10343;SDS011;5217;43.960;10.954;2023-07-29T10:42:06;4.57;;;2.80;;
10343;SDS011;5217;43.960;10.954;2023-07-29T10:44:47;3.05;;;2.40;;
10343;SDS011;5217;43.960;10.954;2023-07-29T10:47:20;3.60;;;2.50;;
10343;SDS011;5217;43.960;10.954;2023-07-29T10:49:51;3.38;;;2.67;;
10343;SDS011;5217;43.960;10.954;2023-07-29T10:52:29;2.63;;;2.33;;
10343;SDS011;5217;43.960;10.954;2023-07-29T10:54:59;3.40;;;2.50;;
10343;SDS011;5217;43.960;10.954;2023-07-29T10:57:31;2.50;;;2.22;;
10343;SDS011;5217;43.960;10.954;2023-07-29T11:00:01;3.00;;;2.30;;
10343;SDS011;5217;43.960;10.954;2023-07-29T11:02:32;4.10;;;2.63;;
10343;SDS011;5217;43.960;10.954;2023-07-29T11:05:04;3.72;;;2.22;;
10343;SDS011;5217;43.960;10.954;2023-07-29T11:07:42;4.35;;;2.80;;
10343;SDS011;5217;43.960;10.954;2023-07-29T11:10:12;2.80;;;2.45;;
10343;SDS011;5217;43.960;10.954;2023-07-29T11:12:43;4.38;;;2.75;;
10343;SDS011;5217;43.960;10.954;2023-07-29T11:15:15;3.97;;;2.78;;
10343;SDS011;5217;43.960;10.954;2023-07-29T11:17:50;3.22;;;2.30;;
10343;SDS011;5217;43.960;10.954;2023-07-29T11:20:21;4.95;;;2.80;;
10343;SDS011;5217;43.960;10.954;2023-07-29T11:22:50;4.55;;;2.90;;
10343;SDS011;5217;43.960;10.954;2023-07-29T11:25:21;4.45;;;3.03;;
10343;SDS011;5217;43.960;10.954;2023-07-29T11:27:51;3.97;;;2.78;;
10343;SDS011;5217;43.960;10.954;2023-07-29T11:30:20;4.78;;;3.30;;
10343;SDS011;5217;43.960;10.954;2023-07-29T11:32:51;5.50;;;3.10;;
10343;SDS011;5217;43.960;10.954;2023-07-29T11:35:22;6.95;;;3.10;;
10343;SDS011;5217;43.960;10.954;2023-07-29T11:37:52;3.28;;;2.83;;
10343;SDS011;5217;43.960;10.954;2023-07-29T11:40:23;3.60;;;3.15;;
10343;SDS011;5217;43.960;10.954;2023-07-29T11:42:52;4.32;;;3.20;;
10343;SDS011;5217;43.960;10.954;2023-07-29T11:45:22;5.68;;;2.85;;
10343;SDS011;5217;43.960;10.954;2023-07-29T11:48:06;3.78;;;2.90;;
10343;SDS011;5217;43.960;10.954;2023-07-29T11:50:35;3.50;;;2.90;;
10343;SDS011;5217;43.960;10.954;2023-07-29T11:53:05;3.83;;;3.08;;
10343;SDS011;5217;43.960;10.954;2023-07-29T11:55:35;3.75;;;3.22;;
10343;SDS011;5217;43.960;10.954;2023-07-29T11:58:05;3.53;;;3.13;;
10343;SDS011;5217;43.960;10.954;2023-07-29T12:00:34;5.60;;;3.50;;
10343;SDS011;5217;43.960;10.954;2023-07-29T12:03:03;5.28;;;3.25;;
10343;SDS011;5217;43.960;10.954;2023-07-29T12:05:33;4.07;;;3.13;;
10343;SDS011;5217;43.960;10.954;2023-07-29T12:08:02;3.97;;;3.38;;
10343;SDS011;5217;43.960;10.954;2023-07-29T12:10:30;5.85;;;3.22;;
10343;SDS011;5217;43.960;10.954;2023-07-29T12:12:59;4.90;;;3.28;;
10343;SDS011;5217;43.960;10.954;2023-07-29T12:15:30;5.15;;;3.60;;
10343;SDS011;5217;43.960;10.954;2023-07-29T12:17:58;4.75;;;3.10;;
10343;SDS011;5217;43.960;10.954;2023-07-29T12:20:28;7.30;;;3.53;;
10343;SDS011;5217;43.960;10.954;2023-07-29T12:22:59;4.43;;;3.00;;
10343;SDS011;5217;43.960;10.954;2023-07-29T12:25:29;5.20;;;3.08;;
10343;SDS011;5217;43.960;10.954;2023-07-29T12:28:01;3.30;;;2.97;;
10343;SDS011;5217;43.960;10.954;2023-07-29T12:30:30;5.07;;;3.17;;
10343;SDS011;5217;43.960;10.954;2023-07-29T12:32:59;5.43;;;3.35;;
10343;SDS011;5217;43.960;10.954;2023-07-29T12:35:37;3.60;;;3.05;;
10343;SDS011;5217;43.960;10.954;2023-07-29T12:38:07;4.53;;;3.30;;
10343;SDS011;5217;43.960;10.954;2023-07-29T12:40:37;5.65;;;3.22;;
10343;SDS011;5217;43.960;10.954;2023-07-29T12:43:08;4.57;;;3.00;;
10343;SDS011;5217;43.960;10.954;2023-07-29T12:45:37;3.42;;;3.13;;
10343;SDS011;5217;43.960;10.954;2023-07-29T12:48:08;5.60;;;3.25;;
10343;SDS011;5217;43.960;10.954;2023-07-29T12:50:36;4.25;;;3.30;;
10343;SDS011;5217;43.960;10.954;2023-07-29T12:53:06;3.70;;;2.90;;
10343;SDS011;5217;43.960;10.954;2023-07-29T12:55:37;6.00;;;3.47;;
10343;SDS011;5217;43.960;10.954;2023-07-29T12:58:06;5.78;;;3.72;;
10343;SDS011;5217;43.960;10.954;2023-07-29T13:00:34;6.45;;;3.60;;
10343;SDS011;5217;43.960;10.954;2023-07-29T13:03:03;5.03;;;3.30;;
10343;SDS011;5217;43.960;10.954;2023-07-29T13:05:32;3.85;;;3.20;;
10343;SDS011;5217;43.960;10.954;2023-07-29T13:08:01;3.45;;;2.95;;
10343;SDS011;5217;43.960;10.954;2023-07-29T13:10:33;4.75;;;3.10;;
10343;SDS011;5217;43.960;10.954;2023-07-29T13:13:02;3.53;;;2.95;;
10343;SDS011;5217;43.960;10.954;2023-07-29T13:15:30;3.67;;;3.15;;
10343;SDS011;5217;43.960;10.954;2023-07-29T13:17:59;4.22;;;3.22;;
10343;SDS011;5217;43.960;10.954;2023-07-29T13:20:27;5.43;;;3.08;;
10343;SDS011;5217;43.960;10.954;2023-07-29T13:22:55;5.00;;;3.25;;
10343;SDS011;5217;43.960;10.954;2023-07-29T13:25:24;4.38;;;3.05;;
10343;SDS011;5217;43.960;10.954;2023-07-29T13:27:54;4.15;;;3.42;;
10343;SDS011;5217;43.960;10.954;2023-07-29T13:30:23;4.15;;;3.38;;
10343;SDS011;5217;43.960;10.954;2023-07-29T13:32:52;5.22;;;3.30;;
10343;SDS011;5217;43.960;10.954;2023-07-29T13:35:20;3.80;;;3.40;;
10343;SDS011;5217;43.960;10.954;2023-07-29T13:37:49;4.45;;;2.90;;
10343;SDS011;5217;43.960;10.954;2023-07-29T13:40:18;3.47;;;2.85;;
10343;SDS011;5217;43.960;10.954;2023-07-29T13:42:47;3.88;;;2.80;;
10343;SDS011;5217;43.960;10.954;2023-07-29T13:45:17;3.63;;;3.10;;
10343;SDS011;5217;43.960;10.954;2023-07-29T13:47:46;4.65;;;2.85;;
10343;SDS011;5217;43.960;10.954;2023-07-29T13:50:15;3.20;;;2.90;;
10343;SDS011;5217;43.960;10.954;2023-07-29T13:52:44;4.60;;;3.15;;
10343;SDS011;5217;43.960;10.954;2023-07-29T13:55:12;4.07;;;3.08;;
10343;SDS011;5217;43.960;10.954;2023-07-29T13:57:41;5.20;;;3.30;;
10343;SDS011;5217;43.960;10.954;2023-07-29T14:00:10;4.05;;;2.92;;
10343;SDS011;5217;43.960;10.954;2023-07-29T14:02:41;5.40;;;2.75;;
10343;SDS011;5217;43.960;10.954;2023-07-29T14:05:10;4.80;;;2.90;;
10343;SDS011;5217;43.960;10.954;2023-07-29T14:07:39;3.80;;;3.20;;
10343;SDS011;5217;43.960;10.954;2023-07-29T14:10:08;5.47;;;3.50;;
10343;SDS011;5217;43.960;10.954;2023-07-29T14:12:40;3.50;;;2.88;;
10343;SDS011;5217;43.960;10.954;2023-07-29T14:15:09;3.58;;;2.90;;
10343;SDS011;5217;43.960;10.954;2023-07-29T14:17:38;4.15;;;2.70;;
10343;SDS011;5217;43.960;10.954;2023-07-29T14:20:09;5.45;;;2.85;;
10343;SDS011;5217;43.960;10.954;2023-07-29T14:22:38;4.65;;;3.28;;
10343;SDS011;5217;43.960;10.954;2023-07-29T14:25:07;5.55;;;3.08;;
10343;SDS011;5217;43.960;10.954;2023-07-29T14:27:38;6.30;;;3.15;;
10343;SDS011;5217;43.960;10.954;2023-07-29T14:30:06;4.22;;;3.10;;
10343;SDS011;5217;43.960;10.954;2023-07-29T14:32:35;4.07;;;3.00;;
10343;SDS011;5217;43.960;10.954;2023-07-29T14:35:04;3.15;;;2.70;;
10343;SDS011;5217;43.960;10.954;2023-07-29T14:37:36;4.22;;;2.95;;
10343;SDS011;5217;43.960;10.954;2023-07-29T14:40:06;2.88;;;2.33;;
10343;SDS011;5217;43.960;10.954;2023-07-29T14:42:35;3.45;;;2.67;;
10343;SDS011;5217;43.960;10.954;2023-07-29T14:45:07;3.90;;;2.88;;
10343;SDS011;5217;43.960;10.954;2023-07-29T14:47:36;3.83;;;2.92;;
10343;SDS011;5217;43.960;10.954;2023-07-29T14:50:05;3.58;;;2.63;;
10343;SDS011;5217;43.960;10.954;2023-07-29T14:52:35;3.85;;;2.60;;
10343;SDS011;5217;43.960;10.954;2023-07-29T14:55:04;5.57;;;3.10;;
10343;SDS011;5217;43.960;10.954;2023-07-29T14:57:33;4.85;;;2.58;;
10343;SDS011;5217;43.960;10.954;2023-07-29T15:00:02;4.22;;;2.40;;
10343;SDS011;5217;43.960;10.954;2023-07-29T15:02:31;3.42;;;2.70;;
10343;SDS011;5217;43.960;10.954;2023-07-29T15:04:59;3.15;;;2.85;;
10343;SDS011;5217;43.960;10.954;2023-07-29T15:07:28;3.55;;;2.80;;
10343;SDS011;5217;43.960;10.954;2023-07-29T15:09:58;2.60;;;2.40;;
10343;SDS011;5217;43.960;10.954;2023-07-29T15:12:27;4.35;;;2.40;;
10343;SDS011;5217;43.960;10.954;2023-07-29T15:14:55;4.00;;;2.50;;
10343;SDS011;5217;43.960;10.954;2023-07-29T15:17:23;3.53;;;2.80;;
10343;SDS011;5217;43.960;10.954;2023-07-29T15:19:52;2.80;;;2.55;;